Time;durP1;ratioP1;P1;durP2;ratioP2;P2;SDS_P1;SDS_P2;PMS_P1;PMS_P2;Temp;Humidity;BMP_temperature;BMP_pressure;BME280_temperature;BME280_humidity;BME280_pressure;Samples;Min_cycle;Max_cycle;Signal;HPM_P1;HPM_P2
2024/04/25 07:17:28;;;;;;;4.10;1.73;;;;;;;;;;11307653;26;19919;-83
2024/04/25 07:28:40;;;;;;;5.63;3.33;;;;;;;;;;11315372;26;19978;-83
2024/04/25 07:33:41;;;;;;;6.30;2.08;;;;;;;;;;11177887;26;20058;-84
2024/04/25 07:38:48;;;;;;;3.88;1.77;;;;;;;;;;11139287;26;19992;-85
2024/04/25 07:49:40;;;;;;;4.25;2.80;;;;;;;;;;11170447;26;19996;-85
2024/04/25 07:54:49;;;;;;;6.72;2.25;;;;;;;;;;11089872;26;20077;-84
2024/04/25 08:06:12;;;;;;;6.47;3.08;;;;;;;;;;11151000;26;19998;-84
2024/04/25 08:22:56;;;;;;;6.65;3.85;;;;;;;;;;11120966;26;19997;-84
2024/04/25 08:28:08;;;;;;;5.43;3.83;;;;;;;;;;11149119;26;20001;-84
2024/04/25 08:33:42;;;;;;;8.93;6.93;;;;;;;;;;11118104;26;20000;-84
2024/04/25 08:38:44;;;;;;;7.28;4.40;;;;;;;;;;11114319;26;20408;-85
2024/04/25 08:43:52;;;;;;;5.32;4.13;;;;;;;;;;11265136;26;20035;-83
2024/04/25 08:54:22;;;;;;;5.57;3.55;;;;;;;;;;11308790;26;19999;-85
2024/04/25 08:59:29;;;;;;;4.80;3.13;;;;;;;;;;11267577;26;20005;-83
2024/04/25 09:04:37;;;;;;;4.80;3.50;;;;;;;;;;11304414;26;20339;-83
2024/04/25 09:10:13;;;;;;;5.72;3.80;;;;;;;;;;11313179;26;20024;-84
2024/04/25 09:21:17;;;;;;;6.32;3.70;;;;;;;;;;11293205;26;19991;-84
2024/04/25 09:55:33;;;;;;;6.35;2.78;;;;;;;;;;11143169;26;19988;-85
2024/04/25 10:00:44;;;;;;;4.03;2.35;;;;;;;;;;11117420;26;20423;-84
2024/04/25 10:06:21;;;;;;;3.30;1.80;;;;;;;;;;11147199;26;19996;-84
2024/04/25 10:18:14;;;;;;;2.97;1.80;;;;;;;;;;11060894;26;20000;-84
2024/04/25 10:29:09;;;;;;;2.92;1.80;;;;;;;;;;11256261;26;20007;-84
2024/04/25 10:34:11;;;;;;;4.60;2.10;;;;;;;;;;11268735;26;20002;-83
2024/04/25 10:39:45;;;;;;;5.68;2.80;;;;;;;;;;11301203;26;20009;-84
2024/04/25 10:45:13;;;;;;;5.93;3.08;;;;;;;;;;11302627;26;20326;-83
2024/04/25 10:50:38;;;;;;;4.63;2.60;;;;;;;;;;11265509;26;19998;-85
2024/04/25 11:19:21;;;;;;;5.45;2.20;;;;;;;;;;11301140;26;19991;-85
2024/04/25 11:24:51;;;;;;;6.75;2.30;;;;;;;;;;11266530;26;19995;-85
2024/04/25 11:30:44;;;;;;;3.72;1.70;;;;;;;;;;11279849;26;20001;-86
2024/04/25 11:36:28;;;;;;;2.85;1.38;;;;;;;;;;11293222;26;19999;-85
2024/04/25 11:42:20;;;;;;;4.25;1.77;;;;;;;;;;11298084;26;20012;-85
2024/04/25 11:53:49;;;;;;;2.80;1.65;;;;;;;;;;11302052;26;19991;-85
2024/04/25 11:58:51;;;;;;;4.63;2.03;;;;;;;;;;11261871;26;19999;-84
2024/04/25 12:03:54;;;;;;;4.18;2.03;;;;;;;;;;11266822;26;19991;-83
2024/04/25 12:14:45;;;;;;;3.95;1.65;;;;;;;;;;11297915;26;19998;-84
2024/04/25 12:26:03;;;;;;;5.68;2.15;;;;;;;;;;11297984;26;19990;-85
2024/04/25 12:37:03;;;;;;;3.25;1.65;;;;;;;;;;11336542;21;20002;-80
2024/04/25 12:42:04;;;;;;;3.90;1.70;;;;;;;;;;11306121;26;19991;-80
2024/04/25 12:47:05;;;;;;;2.30;1.55;;;;;;;;;;11364614;26;19990;-79
2024/04/25 12:52:07;;;;;;;2.88;1.45;;;;;;;;;;11372936;26;20125;-79
2024/04/25 12:57:10;;;;;;;2.75;1.60;;;;;;;;;;11340375;26;20002;-79
2024/04/25 13:02:11;;;;;;;3.65;1.80;;;;;;;;;;11371939;26;19994;-79
2024/04/25 13:07:12;;;;;;;5.20;2.20;;;;;;;;;;11370779;26;19994;-79
2024/04/25 13:12:13;;;;;;;3.75;1.95;;;;;;;;;;11372037;26;19990;-81
2024/04/25 13:17:14;;;;;;;2.83;1.40;;;;;;;;;;11372175;26;20022;-80
2024/04/25 13:22:15;;;;;;;6.38;2.30;;;;;;;;;;11370676;26;20005;-80
2024/04/25 13:27:17;;;;;;;3.65;1.92;;;;;;;;;;11338936;26;20018;-79
2024/04/25 13:32:18;;;;;;;4.05;1.50;;;;;;;;;;11372194;26;20062;-80
2024/04/25 13:37:19;;;;;;;4.55;1.58;;;;;;;;;;11375753;26;20073;-80
2024/04/25 13:42:20;;;;;;;;;;;;;;;;;;11358151;26;20010;-78
2024/04/25 13:47:21;;;;;;;4.15;2.10;;;;;;;;;;11396490;26;20304;-79
2024/04/25 13:52:23;;;;;;;;;;;;;;;;;;11339027;26;20059;-80
2024/04/25 13:57:25;;;;;;;2.53;1.30;;;;;;;;;;11370526;26;19923;-78
2024/04/25 14:02:26;;;;;;;2.45;1.23;;;;;;;;;;11377219;26;20006;-78
2024/04/25 14:07:27;;;;;;;3.70;1.52;;;;;;;;;;11343342;26;19995;-79
2024/04/25 14:12:28;;;;;;;5.00;1.77;;;;;;;;;;11375570;26;20002;-78
2024/04/25 14:17:29;;;;;;;;;;;;;;;;;;11375531;26;20065;-77
2024/04/25 14:22:30;;;;;;;4.28;2.03;;;;;;;;;;11374829;26;19924;-80
2024/04/25 14:32:51;;;;;;;3.15;1.58;;;;;;;;;;11383261;26;19998;-77
2024/04/25 14:37:52;;;;;;;;;;;;;;;;;;11351772;26;19994;-76
2024/04/25 14:42:53;;;;;;;4.15;1.85;;;;;;;;;;11390946;26;19931;-76
2024/04/25 14:47:54;;;;;;;2.88;1.50;;;;;;;;;;11389023;26;20009;-76
2024/04/25 14:52:55;;;;;;;2.83;1.80;;;;;;;;;;11389601;26;20039;-76
2024/04/25 14:57:56;;;;;;;5.28;3.20;;;;;;;;;;11383506;26;20008;-77
2024/04/25 15:02:57;;;;;;;3.67;2.08;;;;;;;;;;11381919;26;19998;-77
2024/04/25 15:07:58;;;;;;;;;;;;;;;;;;11342852;26;20458;-78
2024/04/25 15:12:59;;;;;;;3.78;1.95;;;;;;;;;;11367257;26;19992;-77
2024/04/25 15:18:00;;;;;;;;;;;;;;;;;;11366219;26;20381;-77
2024/04/25 15:23:02;;;;;;;3.33;1.85;;;;;;;;;;11365842;26;19931;-77
2024/04/25 15:28:07;;;;;;;3.35;1.50;;;;;;;;;;11366837;26;19998;-77
2024/04/25 15:33:08;;;;;;;5.00;2.22;;;;;;;;;;11333755;26;19994;-79
2024/04/25 15:38:09;;;;;;;;;;;;;;;;;;11372283;26;19994;-78
2024/04/25 15:43:10;;;;;;;3.95;1.70;;;;;;;;;;11377396;26;19924;-78
2024/04/25 15:48:11;;;;;;;;;;;;;;;;;;11344744;26;20102;-78
2024/04/25 15:53:13;;;;;;;4.07;2.17;;;;;;;;;;11394953;26;19952;-77
2024/04/25 15:58:14;;;;;;;3.08;1.75;;;;;;;;;;11394077;26;20005;-77
2024/04/25 16:03:15;;;;;;;;;;;;;;;;;;11382332;26;20030;-77
2024/04/25 16:08:16;;;;;;;3.75;1.90;;;;;;;;;;11375974;26;20308;-77
2024/04/25 16:13:17;;;;;;;;;;;;;;;;;;11372700;26;20345;-77
2024/04/25 16:18:18;;;;;;;2.38;1.17;;;;;;;;;;11373712;26;19931;-79
2024/04/25 16:23:19;;;;;;;3.53;1.52;;;;;;;;;;11367978;26;20022;-82
2024/04/25 16:28:20;;;;;;;3.33;1.83;;;;;;;;;;11371993;26;20160;-82
2024/04/25 16:33:21;;;;;;;;;;;;;;;;;;11337640;26;20117;-82
2024/04/25 16:38:22;;;;;;;4.80;2.30;;;;;;;;;;11342396;26;19959;-82
2024/04/25 16:43:25;;;;;;;4.30;2.00;;;;;;;;;;11343085;26;19994;-82
2024/04/25 16:48:27;;;;;;;2.63;1.50;;;;;;;;;;11375697;26;19990;-82
2024/04/25 16:53:28;;;;;;;;;;;;;;;;;;11372375;26;20002;-82
2024/04/25 16:58:32;;;;;;;2.90;1.42;;;;;;;;;;11340894;26;19934;-82
2024/04/25 17:03:33;;;;;;;6.75;2.38;;;;;;;;;;11386350;26;20006;-80
2024/04/25 17:08:34;;;;;;;3.78;1.88;;;;;;;;;;11382349;26;20065;-82
2024/04/25 17:13:36;;;;;;;5.78;1.90;;;;;;;;;;11370933;26;20434;-82
2024/04/25 17:18:37;;;;;;;4.22;2.30;;;;;;;;;;11370064;26;20009;-80
2024/04/25 17:23:38;;;;;;;;;;;;;;;;;;11367655;26;20399;-81
2024/04/25 17:28:39;;;;;;;4.97;2.28;;;;;;;;;;11338067;26;19931;-80
2024/04/25 17:33:40;;;;;;;;;;;;;;;;;;11370378;26;20051;-80
2024/04/25 17:38:41;;;;;;;4.40;2.15;;;;;;;;;;11375698;26;19924;-81
2024/04/25 17:43:42;;;;;;;;;;;;;;;;;;11372854;26;19998;-81
2024/04/25 17:48:43;;;;;;;3.33;2.00;;;;;;;;;;11377043;26;19923;-81
2024/04/25 17:53:44;;;;;;;;;;;;;;;;;;11379665;26;20006;-81
2024/04/25 17:58:45;;;;;;;4.28;1.92;;;;;;;;;;11374975;26;20324;-81
2024/04/25 18:03:46;;;;;;;3.38;1.85;;;;;;;;;;11370273;26;20026;-81
2024/04/25 18:08:47;;;;;;;4.97;2.30;;;;;;;;;;11370684;26;19994;-82
2024/04/25 18:13:48;;;;;;;;;;;;;;;;;;11371986;26;20434;-81
2024/04/25 18:18:49;;;;;;;5.03;2.15;;;;;;;;;;11371656;26;19992;-81
2024/04/25 18:23:51;;;;;;;;;;;;;;;;;;11368699;26;20009;-82
2024/04/25 18:28:52;;;;;;;6.38;2.50;;;;;;;;;;11336588;26;19931;-80
2024/04/25 18:33:53;;;;;;;;;;;;;;;;;;11368752;26;19987;-86
2024/04/25 18:38:54;;;;;;;4.22;1.75;;;;;;;;;;11372006;26;20363;-87
2024/04/25 18:43:55;;;;;;;;;;;;;;;;;;11341384;26;19994;-87
2024/04/25 18:48:56;;;;;;;5.88;2.80;;;;;;;;;;11378579;26;19924;-87
2024/04/25 18:53:57;;;;;;;4.75;2.35;;;;;;;;;;11378623;26;19990;-86
2024/04/25 18:58:58;;;;;;;3.47;1.77;;;;;;;;;;11380036;26;19997;-87
2024/04/25 19:03:59;;;;;;;;;;;;;;;;;;11390148;26;20515;-86
